Wesley A — WDE2433 — position and weather

sailwx.info

Track history (hours):
 
Tides and Currents Weather Stations Pressure Air Temp Water Temp Dewpoint Dewpoint Depression Visibility Wind Speed Wind Dir Waves Ship Positions

Wesley A

Owner: G & H Towing Company, Galveston, TX. More information available from US FCC via Universal Licensing System and Coast Guard Vessel Documentation Center.

Last reported at 2018-Jul-16 21:30 UTC. Time now 2018-Jul-16 22:11 UTC.
Position N 29°42' W 095°01'.

Length 30 m; draft 6.5 m.

Type: Tug. MMSI: 367325130.

Date/timePositionNaut miles runAvg speedWind from/ knotsBaromVisibWave heightAir tempDewpointWater temp
2018-Jul-16 21:30N 29°42' W 095°01'2 1.6
2018-Jul-16 20:32N 29°44' W 095°02'1 7.2
2018-Jul-16 20:24N 29°44' W 095°03'2 0.9
2018-Jul-16 18:31N 29°43' W 095°01'1 0.5
2018-Jul-16 17:17N 29°42' W 095°01'0 0.0
2018-Jul-16 16:47N 29°42' W 095°01'1 1.1
2018-Jul-16 16:18N 29°43' W 095°01'1 3.1
2018-Jul-16 15:59N 29°44' W 095°01'1 2.6
2018-Jul-16 15:26N 29°42' W 095°01'0 0.1
2018-Jul-16 14:54N 29°42' W 095°01'0 0.0
2018-Jul-16 14:21N 29°42' W 095°01'0 0.0
2018-Jul-16 14:00N 29°42' W 095°01'0 0.0
2018-Jul-16 13:12N 29°42' W 095°01'0 0.0
2018-Jul-16 12:57N 29°42' W 095°01'0 0.0
2018-Jul-16 12:21N 29°42' W 095°01'0 0.0
2018-Jul-16 12:00N 29°42' W 095°01'2 3.4
2018-Jul-16 11:30N 29°42' W 094°59'1 1.3
2018-Jul-16 11:00N 29°41' W 094°60'1 1.1
2018-Jul-16 10:30N 29°41' W 094°59'2 3.1
2018-Jul-16 10:01N 29°40' W 094°58'2 3.5
2018-Jul-16 09:30N 29°41' W 094°59'2 3.4
2018-Jul-16 08:56N 29°42' W 095°01'0 0.0
2018-Jul-16 08:26N 29°42' W 095°01'0 0.0
2018-Jul-16 07:56N 29°42' W 095°01'0 0.0
2018-Jul-16 02:47N 29°42' W 095°01'0 0.0
2018-Jul-16 02:29N 29°42' W 095°01'0 0.0
2018-Jul-16 01:50N 29°42' W 095°01'0 0.0
2018-Jul-16 01:08N 29°42' W 095°01'0 0.0
2018-Jul-16 00:56N 29°42' W 095°01'0 0.0
2018-Jul-16 00:23N 29°42' W 095°01'0 0.0
2018-Jul-15 23:47N 29°42' W 095°01'0 0.0
2018-Jul-15 22:41N 29°42' W 095°01'0 0.0
2018-Jul-15 22:29N 29°42' W 095°01'0 0.0
2018-Jul-15 20:26N 29°42' W 095°01'0 0.0
2018-Jul-15 16:49N 29°42' W 095°01'2 4.0
2018-Jul-15 16:25N 29°44' W 095°02'1 1.4
2018-Jul-15 15:31N 29°44' W 095°03'0 3.2
2018-Jul-15 15:30N 29°44' W 095°03'3 4.9
2018-Jul-15 14:50N 29°42' W 095°00'1 1.4
2018-Jul-15 14:02N 29°41' W 094°59'0 0.1
2018-Jul-15 13:57N 29°41' W 094°59'0 0.0
2018-Jul-15 13:24N 29°41' W 094°59'0 0.0
2018-Jul-15 13:00N 29°41' W 094°59'0 0.0
2018-Jul-15 12:21N 29°41' W 094°59'0 0.0
2018-Jul-15 12:00N 29°41' W 094°59'0 0.0
2018-Jul-15 11:30N 29°41' W 094°59'0 0.0
2018-Jul-15 11:00N 29°41' W 094°59'0 0.0
2018-Jul-15 10:30N 29°41' W 094°59'0 0.6
2018-Jul-15 10:00N 29°41' W 094°60'1 1.8
2018-Jul-15 09:30N 29°42' W 094°60'5 8.6
2018-Jul-15 08:59N 29°45' W 095°04'3 0.5
2018-Jul-15 02:17N 29°44' W 095°08'0 0.1
2018-Jul-14 23:55N 29°44' W 095°08'0 0.0
2018-Jul-14 23:30N 29°44' W 095°08'1 1.7
2018-Jul-14 23:00N 29°44' W 095°07'5 5.2
2018-Jul-14 22:03N 29°43' W 095°01'0 6.0
2018-Jul-14 22:00N 29°43' W 095°01'0 0.2
2018-Jul-14 19:35N 29°42' W 095°01'0 0.0
2018-Jul-14 19:10N 29°42' W 095°01'1 7.4
2018-Jul-14 19:01N 29°43' W 095°01'1 1.4
2018-Jul-14 18:30N 29°43' W 095°01'5 7.6
2018-Jul-14 17:53N 29°39' W 094°58'2 5.4
2018-Jul-14 17:30N 29°37' W 094°58'2 4.2
2018-Jul-14 17:00N 29°37' W 095°00'0 0.6
2018-Jul-14 16:28N 29°37' W 095°00'0 0.0
2018-Jul-14 15:58N 29°37' W 095°00'0 0.0
2018-Jul-14 15:28N 29°37' W 095°00'0 0.6
2018-Jul-14 15:00N 29°37' W 095°00'1 1.1
2018-Jul-14 14:00N 29°37' W 094°59'3 6.8
2018-Jul-14 13:30N 29°35' W 094°56'611.2
2018-Jul-14 13:00N 29°40' W 094°58'2 2.8
2018-Jul-14 12:28N 29°41' W 094°60'1 1.1
2018-Jul-14 12:00N 29°41' W 094°59'1 1.1
2018-Jul-14 11:30N 29°41' W 094°60'0 0.3
2018-Jul-14 10:59N 29°41' W 094°60'0 0.0
2018-Jul-14 10:29N 29°41' W 094°60'0 0.0
2018-Jul-14 09:59N 29°41' W 094°60'0 0.0
2018-Jul-14 09:29N 29°41' W 094°60'0 0.0
2018-Jul-14 08:59N 29°41' W 094°60'0 0.0
2018-Jul-14 08:29N 29°41' W 094°60'0 0.0
2018-Jul-14 08:00N 29°41' W 094°60'1 1.3
2018-Jul-14 07:28N 29°41' W 095°01'0 0.6
2018-Jul-14 07:00N 29°41' W 095°00'3 4.5
2018-Jul-14 06:25N 29°39' W 094°58'2 5.8
2018-Jul-14 06:00N 29°41' W 094°60'0 0.0
2018-Jul-14 05:21N 29°41' W 094°60'0 0.0
2018-Jul-14 04:54N 29°41' W 094°60'0 0.0
2018-Jul-14 04:27N 29°41' W 094°60'0 0.0
2018-Jul-14 03:54N 29°41' W 094°60'0 0.0
2018-Jul-14 03:21N 29°41' W 094°60'0 0.0
2018-Jul-14 02:57N 29°41' W 094°60'1 1.4
2018-Jul-14 02:29N 29°41' W 094°59'1 1.2
2018-Jul-14 02:00N 29°41' W 094°60'1 1.7
2018-Jul-14 01:30N 29°42' W 094°60'2 2.0
2018-Jul-14 00:19N 29°44' W 095°01'1 0.6
2018-Jul-13 21:41N 29°42' W 095°01'0 0.0
2018-Jul-13 21:17N 29°42' W 095°01'0 0.0
2018-Jul-13 20:53N 29°42' W 095°01'0 0.0
2018-Jul-13 20:23N 29°42' W 095°01'0 0.0
2018-Jul-13 15:59N 29°42' W 095°01'0 0.0
2018-Jul-13 12:32N 29°42' W 095°01'0 0.0
2018-Jul-13 12:20N 29°42' W 095°01'0 0.0
2018-Jul-13 10:38N 29°42' W 095°01'0 0.0
2018-Jul-13 10:20N 29°42' W 095°01'0 0.0
2018-Jul-13 09:59N 29°42' W 095°01'0 0.0
2018-Jul-13 09:17N 29°42' W 095°01'0 0.0
2018-Jul-13 08:56N 29°42' W 095°01'0 0.0
2018-Jul-13 08:29N 29°42' W 095°01'0 0.0
2018-Jul-13 07:38N 29°42' W 095°01'0 0.0
2018-Jul-13 06:17N 29°42' W 095°01'0 1.1
2018-Jul-13 05:58N 29°43' W 095°01'0 0.1
2018-Jul-13 02:38N 29°42' W 095°01'1 0.7
2018-Jul-13 01:17N 29°43' W 095°01'1 4.6
2018-Jul-13 01:00N 29°42' W 095°00'1 2.8
2018-Jul-13 00:30N 29°41' W 094°59'1 2.2
2018-Jul-13 00:00N 29°41' W 095°00'0 0.1
2018-Jul-12 23:22N 29°41' W 095°00'1 2.0
2018-Jul-12 22:56N 29°41' W 094°59'0 0.0
2018-Jul-12 22:29N 29°41' W 094°59'0 0.0
2018-Jul-12 21:59N 29°41' W 094°59'0 0.0
2018-Jul-12 21:29N 29°41' W 094°59'0 0.0
2018-Jul-12 20:59N 29°41' W 094°59'0 0.0
2018-Jul-12 20:30N 29°41' W 094°59'4 5.9
2018-Jul-12 19:50N 29°44' W 095°02'2 6.3
2018-Jul-12 19:30N 29°45' W 095°04'3 4.1
2018-Jul-12 18:44N 29°44' W 095°07'1 0.1
2018-Jul-12 11:21N 29°45' W 095°07'0 1.2
2018-Jul-12 10:58N 29°45' W 095°06'2 2.1
2018-Jul-12 10:09N 29°46' W 095°05'1 4.8
2018-Jul-12 10:00N 29°45' W 095°06'1 1.9
2018-Jul-12 09:29N 29°45' W 095°06'0 0.0
2018-Jul-12 08:59N 29°45' W 095°06'0 0.0
2018-Jul-12 08:26N 29°45' W 095°06'0 0.0
2018-Jul-12 07:53N 29°45' W 095°06'0 0.0
2018-Jul-12 07:26N 29°45' W 095°06'0 0.0
2018-Jul-12 06:59N 29°45' W 095°06'0 0.0
2018-Jul-12 06:29N 29°45' W 095°06'0 0.6
2018-Jul-12 05:57N 29°45' W 095°07'0 0.9
2018-Jul-12 05:29N 29°45' W 095°06'2 4.4
2018-Jul-12 04:57N 29°44' W 095°04'3 0.5
2018-Jul-11 23:07N 29°42' W 095°01'1 7.9
2018-Jul-11 22:56N 29°42' W 094°60'1 2.1
2018-Jul-11 22:23N 29°41' W 095°01'0 0.0
2018-Jul-11 22:01N 29°41' W 095°01'1 2.8
2018-Jul-11 21:30N 29°41' W 094°59'1 0.5
2018-Jul-11 20:04N 29°41' W 094°60'0 0.0
2018-Jul-11 19:55N 29°41' W 094°60'0 0.0
2018-Jul-11 18:13N 29°41' W 094°60'0 0.0
2018-Jul-11 17:58N 29°41' W 094°60'0 0.0
2018-Jul-11 17:28N 29°41' W 094°60'2 4.0
2018-Jul-11 16:59N 29°42' W 095°01'0 0.0
2018-Jul-11 15:08N 29°42' W 095°01'2 7.5
2018-Jul-11 14:54N 29°41' W 094°59'1 0.6
2018-Jul-11 13:55N 29°41' W 094°60'0 0.0
2018-Jul-11 13:10N 29°41' W 094°60'0 0.0
2018-Jul-11 12:58N 29°41' W 094°60'0 0.0
2018-Jul-11 12:22N 29°41' W 094°60'0 0.0
2018-Jul-11 11:10N 29°41' W 094°60'0 0.0
2018-Jul-11 07:52N 29°41' W 094°60'0 0.0
2018-Jul-11 07:01N 29°41' W 094°60'0 0.0
2018-Jul-11 06:49N 29°41' W 094°60'0 0.0
2018-Jul-11 05:52N 29°41' W 094°60'0 0.0
2018-Jul-11 05:19N 29°41' W 094°60'0 0.0
2018-Jul-11 01:37N 29°41' W 094°60'1 4.5
2018-Jul-11 01:28N 29°41' W 094°59'1 1.6
2018-Jul-11 01:00N 29°41' W 094°60'2 2.7
2018-Jul-11 00:26N 29°42' W 095°01'0 0.1
2018-Jul-10 20:09N 29°42' W 095°01'0 0.0
2018-Jul-10 10:33N 29°42' W 095°01'0 2.1
2018-Jul-10 10:30N 29°42' W 095°01'5 9.1
2018-Jul-10 10:00N 29°38' W 094°58'3 5.1
2018-Jul-10 09:30N 29°37' W 095°00'0 0.6
2018-Jul-10 09:00N 29°37' W 095°00'1 1.3
2018-Jul-10 08:28N 29°37' W 095°01'3 5.3
2018-Jul-10 07:59N 29°37' W 094°58'1 3.0
2018-Jul-10 07:29N 29°37' W 094°60'0 0.0
2018-Jul-10 06:56N 29°37' W 094°60'0 0.0
2018-Jul-10 06:29N 29°37' W 094°60'0 0.0
2018-Jul-10 05:59N 29°37' W 094°60'0 0.0
2018-Jul-10 05:29N 29°37' W 094°60'1 1.0
2018-Jul-10 04:55N 29°37' W 095°01'0 0.4
2018-Jul-10 04:30N 29°37' W 095°00'0 0.0
2018-Jul-10 04:00N 29°37' W 095°00'0 0.0
2018-Jul-10 03:30N 29°37' W 095°00'0 0.0
2018-Jul-10 03:00N 29°37' W 095°00'0 0.0
2018-Jul-10 02:30N 29°37' W 095°00'0 0.0
2018-Jul-10 02:00N 29°37' W 095°00'0 0.0
2018-Jul-10 01:27N 29°37' W 095°00'0 0.1
2018-Jul-10 01:00N 29°37' W 095°00'0 0.1
2018-Jul-10 00:30N 29°37' W 095°00'0 0.0
2018-Jul-10 00:00N 29°37' W 095°00'0 0.0
2018-Jul-09 23:30N 29°37' W 095°00'0 0.0
2018-Jul-09 23:00N 29°37' W 095°00'0 0.0
2018-Jul-09 22:30N 29°37' W 095°00'1 1.3
2018-Jul-09 22:01N 29°36' W 095°01'0 0.6
2018-Jul-09 21:30N 29°37' W 095°01'1 1.9
2018-Jul-09 20:58N 29°37' W 094°60'0 0.0
2018-Jul-09 20:28N 29°37' W 094°60'0 0.0
2018-Jul-09 19:58N 29°37' W 094°60'0 0.0
2018-Jul-09 19:28N 29°37' W 094°60'0 0.0
2018-Jul-09 18:58N 29°37' W 094°60'0 0.6
2018-Jul-09 18:30N 29°37' W 095°00'1 2.2
2018-Jul-09 18:00N 29°37' W 095°02'0 0.6
2018-Jul-09 17:30N 29°37' W 095°01'0 0.5
2018-Jul-09 16:59N 29°37' W 095°01'0 0.2
2018-Jul-09 16:28N 29°37' W 095°02'0 0.0
2018-Jul-09 15:58N 29°37' W 095°02'0 0.0
2018-Jul-09 15:28N 29°37' W 095°02'0 0.0
2018-Jul-09 14:58N 29°37' W 095°02'0 0.0
2018-Jul-09 14:28N 29°37' W 095°02'0 0.0
2018-Jul-09 13:58N 29°37' W 095°02'0 0.8
2018-Jul-09 13:29N 29°37' W 095°01'0 0.0
2018-Jul-09 12:59N 29°37' W 095°01'0 0.0
2018-Jul-09 12:29N 29°37' W 095°01'0 0.0
2018-Jul-09 11:59N 29°37' W 095°01'0 0.0
2018-Jul-09 11:30N 29°37' W 095°01'1 1.9
2018-Jul-09 11:00N 29°37' W 095°00'1 1.5
2018-Jul-09 10:17N 29°37' W 095°01'0 0.3
2018-Jul-09 10:00N 29°37' W 095°01'1 2.2
2018-Jul-09 09:30N 29°37' W 094°60'0 0.0
2018-Jul-09 09:00N 29°37' W 094°60'1 1.0
2018-Jul-09 08:26N 29°37' W 095°01'0 0.0
2018-Jul-09 07:59N 29°37' W 095°01'0 0.0
2018-Jul-09 07:29N 29°37' W 095°01'0 0.0
2018-Jul-09 06:59N 29°37' W 095°01'0 0.0
2018-Jul-09 06:29N 29°37' W 095°01'0 0.0
2018-Jul-09 05:59N 29°37' W 095°01'1 1.4
2018-Jul-09 05:30N 29°37' W 095°01'1 2.3
2018-Jul-09 05:00N 29°37' W 094°60'0 0.0
2018-Jul-09 04:27N 29°37' W 094°60'0 0.0
2018-Jul-09 04:00N 29°37' W 094°60'0 0.0
2018-Jul-09 03:30N 29°37' W 094°60'0 0.0
2018-Jul-09 03:00N 29°37' W 094°60'0 0.0
2018-Jul-09 02:30N 29°37' W 094°60'0 0.0
2018-Jul-09 02:00N 29°37' W 094°60'1 2.5
2018-Jul-09 01:30N 29°37' W 094°58'1 2.9
2018-Jul-09 01:00N 29°37' W 095°00'0 0.1
2018-Jul-09 00:30N 29°37' W 095°00'0 0.0
2018-Jul-09 00:00N 29°37' W 095°00'0 0.0
2018-Jul-08 23:27N 29°37' W 095°00'0 0.1
2018-Jul-08 23:00N 29°37' W 095°00'0 0.7
2018-Jul-08 22:28N 29°37' W 095°01'0 0.4
2018-Jul-08 22:00N 29°37' W 095°00'0 0.3
2018-Jul-08 21:29N 29°37' W 095°00'0 0.0
2018-Jul-08 20:59N 29°37' W 095°00'0 0.0
2018-Jul-08 20:29N 29°37' W 095°00'0 0.0
2018-Jul-08 19:56N 29°37' W 095°00'0 0.0
2018-Jul-08 19:29N 29°37' W 095°00'0 0.0
2018-Jul-08 18:56N 29°37' W 095°00'0 0.0
2018-Jul-08 18:29N 29°37' W 095°00'0 0.0
2018-Jul-08 17:59N 29°37' W 095°00'0 0.0
2018-Jul-08 17:29N 29°37' W 095°00'0 0.1
2018-Jul-08 17:00N 29°37' W 095°00'0 0.8
2018-Jul-08 16:31N 29°37' W 094°60'3 6.2
2018-Jul-08 16:01N 29°40' W 094°58'1 2.5
2018-Jul-08 15:28N 29°41' W 094°59'0 0.0
2018-Jul-08 14:58N 29°41' W 094°59'0 0.0
2018-Jul-08 14:28N 29°41' W 094°59'0 0.0
2018-Jul-08 13:58N 29°41' W 094°59'0 0.0
2018-Jul-08 13:28N 29°41' W 094°59'0 0.0
2018-Jul-08 13:00N 29°41' W 094°59'0 0.9
2018-Jul-08 12:30N 29°41' W 094°60'1 2.6
2018-Jul-08 12:00N 29°42' W 095°00'1 0.4
2018-Jul-08 10:25N 29°42' W 095°01'0 0.0
2018-Jul-08 06:28N 29°42' W 095°01'1 2.7
2018-Jul-08 05:59N 29°44' W 095°01'0 0.1
2018-Jul-08 05:29N 29°44' W 095°01'2 2.9
2018-Jul-08 04:56N 29°42' W 095°00'2 3.3
2018-Jul-08 04:28N 29°41' W 094°59'0 0.0
2018-Jul-08 03:58N 29°41' W 094°59'0 0.0
2018-Jul-08 03:28N 29°41' W 094°59'0 0.0
2018-Jul-08 02:55N 29°41' W 094°59'0 0.0
2018-Jul-08 02:28N 29°41' W 094°59'0 0.0
2018-Jul-08 01:58N 29°41' W 094°59'0 0.0
2018-Jul-08 01:28N 29°41' W 094°59'0 0.0
2018-Jul-08 00:58N 29°41' W 094°59'0 0.0
2018-Jul-08 00:28N 29°41' W 094°59'0 0.0
2018-Jul-08 00:00N 29°41' W 094°59'1 2.2
2018-Jul-07 23:29N 29°41' W 095°00'0 0.8
2018-Jul-07 23:00N 29°41' W 094°60'4 8.3
2018-Jul-07 22:28N 29°37' W 094°58'3 6.7
2018-Jul-07 21:58N 29°37' W 095°02'0 0.0
2018-Jul-07 21:28N 29°37' W 095°02'0 0.0
2018-Jul-07 20:58N 29°37' W 095°02'0 0.0
2018-Jul-07 20:28N 29°37' W 095°02'0 0.0
2018-Jul-07 19:58N 29°37' W 095°02'0 0.6
2018-Jul-07 19:30N 29°37' W 095°01'0 0.4
2018-Jul-07 19:00N 29°37' W 095°01'0 0.0
2018-Jul-07 18:29N 29°37' W 095°01'3 7.1
2018-Jul-07 18:00N 29°37' W 094°58'5 9.4
2018-Jul-07 17:30N 29°42' W 094°60'2 2.8
2018-Jul-07 16:37N 29°44' W 095°01'1 1.2
2018-Jul-07 15:26N 29°42' W 095°01'2 4.3
2018-Jul-07 15:00N 29°41' W 094°60'0 0.0
2018-Jul-07 14:20N 29°41' W 094°60'0 0.0
2018-Jul-07 13:59N 29°41' W 094°60'0 0.0
2018-Jul-07 13:23N 29°41' W 094°60'0 0.0
2018-Jul-07 12:59N 29°41' W 094°60'0 0.0
2018-Jul-07 12:29N 29°41' W 094°60'0 0.0
2018-Jul-07 12:00N 29°41' W 094°60'0 0.2
2018-Jul-07 11:30N 29°41' W 094°60'1 1.1
2018-Jul-07 11:00N 29°41' W 094°59'0 0.8
2018-Jul-07 10:30N 29°41' W 094°59'1 1.0
2018-Jul-07 09:59N 29°41' W 094°59'0 0.0
2018-Jul-07 09:29N 29°41' W 094°59'0 0.0
2018-Jul-07 08:59N 29°41' W 094°59'0 0.0
2018-Jul-07 08:29N 29°41' W 094°59'0 0.0
2018-Jul-07 07:59N 29°41' W 094°59'0 0.0
2018-Jul-07 07:29N 29°41' W 094°59'0 0.0
2018-Jul-07 06:59N 29°41' W 094°59'0 0.0
2018-Jul-07 06:29N 29°41' W 094°59'0 0.0
2018-Jul-07 05:56N 29°41' W 094°59'0 0.0
2018-Jul-07 05:29N 29°41' W 094°59'0 0.0
2018-Jul-07 04:59N 29°41' W 094°59'0 0.0
2018-Jul-07 04:29N 29°41' W 094°59'0 0.0
2018-Jul-07 03:59N 29°41' W 094°59'0 0.0
2018-Jul-07 03:29N 29°41' W 094°59'0 0.0
2018-Jul-07 02:59N 29°41' W 094°59'0 0.0
2018-Jul-07 02:27N 29°41' W 094°59'2 4.5
2018-Jul-07 02:00N 29°42' W 095°01'3 2.4
2018-Jul-07 00:57N 29°44' W 095°03'2 3.1
2018-Jul-07 00:25N 29°44' W 095°01'0 0.2
2018-Jul-06 23:59N 29°44' W 095°01'3 4.8
2018-Jul-06 23:26N 29°42' W 094°59'4 9.4
2018-Jul-06 22:59N 29°38' W 094°58'2 4.2
2018-Jul-06 22:26N 29°37' W 095°00'0 0.0
2018-Jul-06 21:59N 29°37' W 095°00'  
Track history (hours):
 
Tides and Currents Weather Stations Pressure Air Temp Water Temp Dewpoint Dewpoint Depression Visibility Wind Speed Wind Dir Waves Ship Positions

Wesley A

Owner: G & H Towing Company, Galveston, TX. More information available from US FCC via Universal Licensing System and Coast Guard Vessel Documentation Center.

Last reported at 2018-Jul-16 21:30 UTC. Time now 2018-Jul-16 22:11 UTC.
Position N 29°42' W 095°01'.

Length 30 m; draft 6.5 m.

Type: Tug. MMSI: 367325130.

Date/timePositionNaut miles runAvg speedWind from/ knotsBaromVisibWave heightAir tempDewpointWater temp
2018-Jul-16 21:30N 29°42' W 095°01'2 1.6
2018-Jul-16 20:32N 29°44' W 095°02'1 7.2
2018-Jul-16 20:24N 29°44' W 095°03'2 0.9
2018-Jul-16 18:31N 29°43' W 095°01'1 0.5
2018-Jul-16 17:17N 29°42' W 095°01'0 0.0
2018-Jul-16 16:47N 29°42' W 095°01'1 1.1
2018-Jul-16 16:18N 29°43' W 095°01'1 3.1
2018-Jul-16 15:59N 29°44' W 095°01'1 2.6
2018-Jul-16 15:26N 29°42' W 095°01'0 0.1
2018-Jul-16 14:54N 29°42' W 095°01'0 0.0
2018-Jul-16 14:21N 29°42' W 095°01'0 0.0
2018-Jul-16 14:00N 29°42' W 095°01'0 0.0
2018-Jul-16 13:12N 29°42' W 095°01'0 0.0
2018-Jul-16 12:57N 29°42' W 095°01'0 0.0
2018-Jul-16 12:21N 29°42' W 095°01'0 0.0
2018-Jul-16 12:00N 29°42' W 095°01'2 3.4
2018-Jul-16 11:30N 29°42' W 094°59'1 1.3
2018-Jul-16 11:00N 29°41' W 094°60'1 1.1
2018-Jul-16 10:30N 29°41' W 094°59'2 3.1
2018-Jul-16 10:01N 29°40' W 094°58'2 3.5
2018-Jul-16 09:30N 29°41' W 094°59'2 3.4
2018-Jul-16 08:56N 29°42' W 095°01'0 0.0
2018-Jul-16 08:26N 29°42' W 095°01'0 0.0
2018-Jul-16 07:56N 29°42' W 095°01'0 0.0
2018-Jul-16 02:47N 29°42' W 095°01'0 0.0
2018-Jul-16 02:29N 29°42' W 095°01'0 0.0
2018-Jul-16 01:50N 29°42' W 095°01'0 0.0
2018-Jul-16 01:08N 29°42' W 095°01'0 0.0
2018-Jul-16 00:56N 29°42' W 095°01'0 0.0
2018-Jul-16 00:23N 29°42' W 095°01'0 0.0
2018-Jul-15 23:47N 29°42' W 095°01'0 0.0
2018-Jul-15 22:41N 29°42' W 095°01'0 0.0
2018-Jul-15 22:29N 29°42' W 095°01'0 0.0
2018-Jul-15 20:26N 29°42' W 095°01'0 0.0
2018-Jul-15 16:49N 29°42' W 095°01'2 4.0
2018-Jul-15 16:25N 29°44' W 095°02'1 1.4
2018-Jul-15 15:31N 29°44' W 095°03'0 3.2
2018-Jul-15 15:30N 29°44' W 095°03'3 4.9
2018-Jul-15 14:50N 29°42' W 095°00'1 1.4
2018-Jul-15 14:02N 29°41' W 094°59'0 0.1
2018-Jul-15 13:57N 29°41' W 094°59'0 0.0
2018-Jul-15 13:24N 29°41' W 094°59'0 0.0
2018-Jul-15 13:00N 29°41' W 094°59'0 0.0
2018-Jul-15 12:21N 29°41' W 094°59'0 0.0
2018-Jul-15 12:00N 29°41' W 094°59'0 0.0
2018-Jul-15 11:30N 29°41' W 094°59'0 0.0
2018-Jul-15 11:00N 29°41' W 094°59'0 0.0
2018-Jul-15 10:30N 29°41' W 094°59'0 0.6
2018-Jul-15 10:00N 29°41' W 094°60'1 1.8
2018-Jul-15 09:30N 29°42' W 094°60'5 8.6
2018-Jul-15 08:59N 29°45' W 095°04'3 0.5
2018-Jul-15 02:17N 29°44' W 095°08'0 0.1
2018-Jul-14 23:55N 29°44' W 095°08'0 0.0
2018-Jul-14 23:30N 29°44' W 095°08'1 1.7
2018-Jul-14 23:00N 29°44' W 095°07'5 5.2
2018-Jul-14 22:03N 29°43' W 095°01'0 6.0
2018-Jul-14 22:00N 29°43' W 095°01'0 0.2
2018-Jul-14 19:35N 29°42' W 095°01'0 0.0
2018-Jul-14 19:10N 29°42' W 095°01'1 7.4
2018-Jul-14 19:01N 29°43' W 095°01'1 1.4
2018-Jul-14 18:30N 29°43' W 095°01'5 7.6
2018-Jul-14 17:53N 29°39' W 094°58'2 5.4
2018-Jul-14 17:30N 29°37' W 094°58'2 4.2
2018-Jul-14 17:00N 29°37' W 095°00'0 0.6
2018-Jul-14 16:28N 29°37' W 095°00'0 0.0
2018-Jul-14 15:58N 29°37' W 095°00'0 0.0
2018-Jul-14 15:28N 29°37' W 095°00'0 0.6
2018-Jul-14 15:00N 29°37' W 095°00'1 1.1
2018-Jul-14 14:00N 29°37' W 094°59'3 6.8
2018-Jul-14 13:30N 29°35' W 094°56'611.2
2018-Jul-14 13:00N 29°40' W 094°58'2 2.8
2018-Jul-14 12:28N 29°41' W 094°60'1 1.1
2018-Jul-14 12:00N 29°41' W 094°59'1 1.1
2018-Jul-14 11:30N 29°41' W 094°60'0 0.3
2018-Jul-14 10:59N 29°41' W 094°60'0 0.0
2018-Jul-14 10:29N 29°41' W 094°60'0 0.0
2018-Jul-14 09:59N 29°41' W 094°60'0 0.0
2018-Jul-14 09:29N 29°41' W 094°60'0 0.0
2018-Jul-14 08:59N 29°41' W 094°60'0 0.0
2018-Jul-14 08:29N 29°41' W 094°60'0 0.0
2018-Jul-14 08:00N 29°41' W 094°60'1 1.3
2018-Jul-14 07:28N 29°41' W 095°01'0 0.6
2018-Jul-14 07:00N 29°41' W 095°00'3 4.5
2018-Jul-14 06:25N 29°39' W 094°58'2 5.8
2018-Jul-14 06:00N 29°41' W 094°60'0 0.0
2018-Jul-14 05:21N 29°41' W 094°60'0 0.0
2018-Jul-14 04:54N 29°41' W 094°60'0 0.0
2018-Jul-14 04:27N 29°41' W 094°60'0 0.0
2018-Jul-14 03:54N 29°41' W 094°60'0 0.0
2018-Jul-14 03:21N 29°41' W 094°60'0 0.0
2018-Jul-14 02:57N 29°41' W 094°60'1 1.4
2018-Jul-14 02:29N 29°41' W 094°59'1 1.2
2018-Jul-14 02:00N 29°41' W 094°60'1 1.7
2018-Jul-14 01:30N 29°42' W 094°60'2 2.0
2018-Jul-14 00:19N 29°44' W 095°01'1 0.6
2018-Jul-13 21:41N 29°42' W 095°01'0 0.0
2018-Jul-13 21:17N 29°42' W 095°01'0 0.0
2018-Jul-13 20:53N 29°42' W 095°01'0 0.0
2018-Jul-13 20:23N 29°42' W 095°01'0 0.0
2018-Jul-13 15:59N 29°42' W 095°01'0 0.0
2018-Jul-13 12:32N 29°42' W 095°01'0 0.0
2018-Jul-13 12:20N 29°42' W 095°01'0 0.0
2018-Jul-13 10:38N 29°42' W 095°01'0 0.0
2018-Jul-13 10:20N 29°42' W 095°01'0 0.0
2018-Jul-13 09:59N 29°42' W 095°01'0 0.0
2018-Jul-13 09:17N 29°42' W 095°01'0 0.0
2018-Jul-13 08:56N 29°42' W 095°01'0 0.0
2018-Jul-13 08:29N 29°42' W 095°01'0 0.0
2018-Jul-13 07:38N 29°42' W 095°01'0 0.0
2018-Jul-13 06:17N 29°42' W 095°01'0 1.1
2018-Jul-13 05:58N 29°43' W 095°01'0 0.1
2018-Jul-13 02:38N 29°42' W 095°01'1 0.7
2018-Jul-13 01:17N 29°43' W 095°01'1 4.6
2018-Jul-13 01:00N 29°42' W 095°00'1 2.8
2018-Jul-13 00:30N 29°41' W 094°59'1 2.2
2018-Jul-13 00:00N 29°41' W 095°00'0 0.1
2018-Jul-12 23:22N 29°41' W 095°00'1 2.0
2018-Jul-12 22:56N 29°41' W 094°59'0 0.0
2018-Jul-12 22:29N 29°41' W 094°59'0 0.0
2018-Jul-12 21:59N 29°41' W 094°59'0 0.0
2018-Jul-12 21:29N 29°41' W 094°59'0 0.0
2018-Jul-12 20:59N 29°41' W 094°59'0 0.0
2018-Jul-12 20:30N 29°41' W 094°59'4 5.9
2018-Jul-12 19:50N 29°44' W 095°02'2 6.3
2018-Jul-12 19:30N 29°45' W 095°04'3 4.1
2018-Jul-12 18:44N 29°44' W 095°07'1 0.1
2018-Jul-12 11:21N 29°45' W 095°07'0 1.2
2018-Jul-12 10:58N 29°45' W 095°06'2 2.1
2018-Jul-12 10:09N 29°46' W 095°05'1 4.8
2018-Jul-12 10:00N 29°45' W 095°06'1 1.9
2018-Jul-12 09:29N 29°45' W 095°06'0 0.0
2018-Jul-12 08:59N 29°45' W 095°06'0 0.0
2018-Jul-12 08:26N 29°45' W 095°06'0 0.0
2018-Jul-12 07:53N 29°45' W 095°06'0 0.0
2018-Jul-12 07:26N 29°45' W 095°06'0 0.0
2018-Jul-12 06:59N 29°45' W 095°06'0 0.0
2018-Jul-12 06:29N 29°45' W 095°06'0 0.6
2018-Jul-12 05:57N 29°45' W 095°07'0 0.9
2018-Jul-12 05:29N 29°45' W 095°06'2 4.4
2018-Jul-12 04:57N 29°44' W 095°04'3 0.5
2018-Jul-11 23:07N 29°42' W 095°01'1 7.9
2018-Jul-11 22:56N 29°42' W 094°60'1 2.1
2018-Jul-11 22:23N 29°41' W 095°01'0 0.0
2018-Jul-11 22:01N 29°41' W 095°01'1 2.8
2018-Jul-11 21:30N 29°41' W 094°59'1 0.5
2018-Jul-11 20:04N 29°41' W 094°60'0 0.0
2018-Jul-11 19:55N 29°41' W 094°60'0 0.0
2018-Jul-11 18:13N 29°41' W 094°60'0 0.0
2018-Jul-11 17:58N 29°41' W 094°60'0 0.0
2018-Jul-11 17:28N 29°41' W 094°60'2 4.0
2018-Jul-11 16:59N 29°42' W 095°01'0 0.0
2018-Jul-11 15:08N 29°42' W 095°01'2 7.5
2018-Jul-11 14:54N 29°41' W 094°59'1 0.6
2018-Jul-11 13:55N 29°41' W 094°60'0 0.0
2018-Jul-11 13:10N 29°41' W 094°60'0 0.0
2018-Jul-11 12:58N 29°41' W 094°60'0 0.0
2018-Jul-11 12:22N 29°41' W 094°60'0 0.0
2018-Jul-11 11:10N 29°41' W 094°60'0 0.0
2018-Jul-11 07:52N 29°41' W 094°60'0 0.0
2018-Jul-11 07:01N 29°41' W 094°60'0 0.0
2018-Jul-11 06:49N 29°41' W 094°60'0 0.0
2018-Jul-11 05:52N 29°41' W 094°60'0 0.0
2018-Jul-11 05:19N 29°41' W 094°60'0 0.0
2018-Jul-11 01:37N 29°41' W 094°60'1 4.5
2018-Jul-11 01:28N 29°41' W 094°59'1 1.6
2018-Jul-11 01:00N 29°41' W 094°60'2 2.7
2018-Jul-11 00:26N 29°42' W 095°01'0 0.1
2018-Jul-10 20:09N 29°42' W 095°01'0 0.0
2018-Jul-10 10:33N 29°42' W 095°01'0 2.1
2018-Jul-10 10:30N 29°42' W 095°01'5 9.1
2018-Jul-10 10:00N 29°38' W 094°58'3 5.1
2018-Jul-10 09:30N 29°37' W 095°00'0 0.6
2018-Jul-10 09:00N 29°37' W 095°00'1 1.3
2018-Jul-10 08:28N 29°37' W 095°01'3 5.3
2018-Jul-10 07:59N 29°37' W 094°58'1 3.0
2018-Jul-10 07:29N 29°37' W 094°60'0 0.0
2018-Jul-10 06:56N 29°37' W 094°60'0 0.0
2018-Jul-10 06:29N 29°37' W 094°60'0 0.0
2018-Jul-10 05:59N 29°37' W 094°60'0 0.0
2018-Jul-10 05:29N 29°37' W 094°60'1 1.0
2018-Jul-10 04:55N 29°37' W 095°01'0 0.4
2018-Jul-10 04:30N 29°37' W 095°00'0 0.0
2018-Jul-10 04:00N 29°37' W 095°00'0 0.0
2018-Jul-10 03:30N 29°37' W 095°00'0 0.0
2018-Jul-10 03:00N 29°37' W 095°00'0 0.0
2018-Jul-10 02:30N 29°37' W 095°00'0 0.0
2018-Jul-10 02:00N 29°37' W 095°00'0 0.0
2018-Jul-10 01:27N 29°37' W 095°00'0 0.1
2018-Jul-10 01:00N 29°37' W 095°00'0 0.1
2018-Jul-10 00:30N 29°37' W 095°00'0 0.0
2018-Jul-10 00:00N 29°37' W 095°00'0 0.0
2018-Jul-09 23:30N 29°37' W 095°00'0 0.0
2018-Jul-09 23:00N 29°37' W 095°00'0 0.0
2018-Jul-09 22:30N 29°37' W 095°00'1 1.3
2018-Jul-09 22:01N 29°36' W 095°01'0 0.6
2018-Jul-09 21:30N 29°37' W 095°01'1 1.9
2018-Jul-09 20:58N 29°37' W 094°60'0 0.0
2018-Jul-09 20:28N 29°37' W 094°60'0 0.0
2018-Jul-09 19:58N 29°37' W 094°60'0 0.0
2018-Jul-09 19:28N 29°37' W 094°60'0 0.0
2018-Jul-09 18:58N 29°37' W 094°60'0 0.6
2018-Jul-09 18:30N 29°37' W 095°00'1 2.2
2018-Jul-09 18:00N 29°37' W 095°02'0 0.6
2018-Jul-09 17:30N 29°37' W 095°01'0 0.5
2018-Jul-09 16:59N 29°37' W 095°01'0 0.2
2018-Jul-09 16:28N 29°37' W 095°02'0 0.0
2018-Jul-09 15:58N 29°37' W 095°02'0 0.0
2018-Jul-09 15:28N 29°37' W 095°02'0 0.0
2018-Jul-09 14:58N 29°37' W 095°02'0 0.0
2018-Jul-09 14:28N 29°37' W 095°02'0 0.0
2018-Jul-09 13:58N 29°37' W 095°02'0 0.8
2018-Jul-09 13:29N 29°37' W 095°01'0 0.0
2018-Jul-09 12:59N 29°37' W 095°01'0 0.0
2018-Jul-09 12:29N 29°37' W 095°01'0 0.0
2018-Jul-09 11:59N 29°37' W 095°01'0 0.0
2018-Jul-09 11:30N 29°37' W 095°01'1 1.9
2018-Jul-09 11:00N 29°37' W 095°00'1 1.5
2018-Jul-09 10:17N 29°37' W 095°01'0 0.3
2018-Jul-09 10:00N 29°37' W 095°01'1 2.2
2018-Jul-09 09:30N 29°37' W 094°60'0 0.0
2018-Jul-09 09:00N 29°37' W 094°60'1 1.0
2018-Jul-09 08:26N 29°37' W 095°01'0 0.0
2018-Jul-09 07:59N 29°37' W 095°01'0 0.0
2018-Jul-09 07:29N 29°37' W 095°01'0 0.0
2018-Jul-09 06:59N 29°37' W 095°01'0 0.0
2018-Jul-09 06:29N 29°37' W 095°01'0 0.0
2018-Jul-09 05:59N 29°37' W 095°01'1 1.4
2018-Jul-09 05:30N 29°37' W 095°01'1 2.3
2018-Jul-09 05:00N 29°37' W 094°60'0 0.0
2018-Jul-09 04:27N 29°37' W 094°60'0 0.0
2018-Jul-09 04:00N 29°37' W 094°60'0 0.0
2018-Jul-09 03:30N 29°37' W 094°60'0 0.0
2018-Jul-09 03:00N 29°37' W 094°60'0 0.0
2018-Jul-09 02:30N 29°37' W 094°60'0 0.0
2018-Jul-09 02:00N 29°37' W 094°60'1 2.5
2018-Jul-09 01:30N 29°37' W 094°58'1 2.9
2018-Jul-09 01:00N 29°37' W 095°00'0 0.1
2018-Jul-09 00:30N 29°37' W 095°00'0 0.0
2018-Jul-09 00:00N 29°37' W 095°00'0 0.0
2018-Jul-08 23:27N 29°37' W 095°00'0 0.1
2018-Jul-08 23:00N 29°37' W 095°00'0 0.7
2018-Jul-08 22:28N 29°37' W 095°01'0 0.4
2018-Jul-08 22:00N 29°37' W 095°00'0 0.3
2018-Jul-08 21:29N 29°37' W 095°00'0 0.0
2018-Jul-08 20:59N 29°37' W 095°00'0 0.0
2018-Jul-08 20:29N 29°37' W 095°00'0 0.0
2018-Jul-08 19:56N 29°37' W 095°00'0 0.0
2018-Jul-08 19:29N 29°37' W 095°00'0 0.0
2018-Jul-08 18:56N 29°37' W 095°00'0 0.0
2018-Jul-08 18:29N 29°37' W 095°00'0 0.0
2018-Jul-08 17:59N 29°37' W 095°00'0 0.0
2018-Jul-08 17:29N 29°37' W 095°00'0 0.1
2018-Jul-08 17:00N 29°37' W 095°00'0 0.8
2018-Jul-08 16:31N 29°37' W 094°60'3 6.2
2018-Jul-08 16:01N 29°40' W 094°58'1 2.5
2018-Jul-08 15:28N 29°41' W 094°59'0 0.0
2018-Jul-08 14:58N 29°41' W 094°59'0 0.0
2018-Jul-08 14:28N 29°41' W 094°59'0 0.0
2018-Jul-08 13:58N 29°41' W 094°59'0 0.0
2018-Jul-08 13:28N 29°41' W 094°59'0 0.0
2018-Jul-08 13:00N 29°41' W 094°59'0 0.9
2018-Jul-08 12:30N 29°41' W 094°60'1 2.6
2018-Jul-08 12:00N 29°42' W 095°00'1 0.4
2018-Jul-08 10:25N 29°42' W 095°01'0 0.0
2018-Jul-08 06:28N 29°42' W 095°01'1 2.7
2018-Jul-08 05:59N 29°44' W 095°01'0 0.1
2018-Jul-08 05:29N 29°44' W 095°01'2 2.9
2018-Jul-08 04:56N 29°42' W 095°00'2 3.3
2018-Jul-08 04:28N 29°41' W 094°59'0 0.0
2018-Jul-08 03:58N 29°41' W 094°59'0 0.0
2018-Jul-08 03:28N 29°41' W 094°59'0 0.0
2018-Jul-08 02:55N 29°41' W 094°59'0 0.0
2018-Jul-08 02:28N 29°41' W 094°59'0 0.0
2018-Jul-08 01:58N 29°41' W 094°59'0 0.0
2018-Jul-08 01:28N 29°41' W 094°59'0 0.0
2018-Jul-08 00:58N 29°41' W 094°59'0 0.0
2018-Jul-08 00:28N 29°41' W 094°59'0 0.0
2018-Jul-08 00:00N 29°41' W 094°59'1 2.2
2018-Jul-07 23:29N 29°41' W 095°00'0 0.8
2018-Jul-07 23:00N 29°41' W 094°60'4 8.3
2018-Jul-07 22:28N 29°37' W 094°58'3 6.7
2018-Jul-07 21:58N 29°37' W 095°02'0 0.0
2018-Jul-07 21:28N 29°37' W 095°02'0 0.0
2018-Jul-07 20:58N 29°37' W 095°02'0 0.0
2018-Jul-07 20:28N 29°37' W 095°02'0 0.0
2018-Jul-07 19:58N 29°37' W 095°02'0 0.6
2018-Jul-07 19:30N 29°37' W 095°01'0 0.4
2018-Jul-07 19:00N 29°37' W 095°01'0 0.0
2018-Jul-07 18:29N 29°37' W 095°01'3 7.1
2018-Jul-07 18:00N 29°37' W 094°58'5 9.4
2018-Jul-07 17:30N 29°42' W 094°60'2 2.8
2018-Jul-07 16:37N 29°44' W 095°01'1 1.2
2018-Jul-07 15:26N 29°42' W 095°01'2 4.3
2018-Jul-07 15:00N 29°41' W 094°60'0 0.0
2018-Jul-07 14:20N 29°41' W 094°60'0 0.0
2018-Jul-07 13:59N 29°41' W 094°60'0 0.0
2018-Jul-07 13:23N 29°41' W 094°60'0 0.0
2018-Jul-07 12:59N 29°41' W 094°60'0 0.0
2018-Jul-07 12:29N 29°41' W 094°60'0 0.0
2018-Jul-07 12:00N 29°41' W 094°60'0 0.2
2018-Jul-07 11:30N 29°41' W 094°60'1 1.1
2018-Jul-07 11:00N 29°41' W 094°59'0 0.8
2018-Jul-07 10:30N 29°41' W 094°59'1 1.0
2018-Jul-07 09:59N 29°41' W 094°59'0 0.0
2018-Jul-07 09:29N 29°41' W 094°59'0 0.0
2018-Jul-07 08:59N 29°41' W 094°59'0 0.0
2018-Jul-07 08:29N 29°41' W 094°59'0 0.0
2018-Jul-07 07:59N 29°41' W 094°59'0 0.0
2018-Jul-07 07:29N 29°41' W 094°59'0 0.0
2018-Jul-07 06:59N 29°41' W 094°59'0 0.0
2018-Jul-07 06:29N 29°41' W 094°59'0 0.0
2018-Jul-07 05:56N 29°41' W 094°59'0 0.0
2018-Jul-07 05:29N 29°41' W 094°59'0 0.0
2018-Jul-07 04:59N 29°41' W 094°59'0 0.0
2018-Jul-07 04:29N 29°41' W 094°59'0 0.0
2018-Jul-07 03:59N 29°41' W 094°59'0 0.0
2018-Jul-07 03:29N 29°41' W 094°59'0 0.0
2018-Jul-07 02:59N 29°41' W 094°59'0 0.0
2018-Jul-07 02:27N 29°41' W 094°59'2 4.5
2018-Jul-07 02:00N 29°42' W 095°01'3 2.4
2018-Jul-07 00:57N 29°44' W 095°03'2 3.1
2018-Jul-07 00:25N 29°44' W 095°01'0 0.2
2018-Jul-06 23:59N 29°44' W 095°01'3 4.8
2018-Jul-06 23:26N 29°42' W 094°59'4 9.4
2018-Jul-06 22:59N 29°38' W 094°58'2 4.2
2018-Jul-06 22:26N 29°37' W 095°00'0 0.0
2018-Jul-06 21:59N 29°37' W 095°00'  

Dump ship's entire track history